sensor_id;sensor_type;location;lat;lon;timestamp;pressure;altitude;pressure_sealevel;temperature;humidity
50933;BME280;36921;49.006;9.292;2022-09-13T00:00:58;98323.16;;;15.13;98.55
50933;BME280;36921;49.006;9.292;2022-09-13T00:03:24;98332.22;;;15.02;98.90
50933;BME280;36921;49.006;9.292;2022-09-13T00:05:50;98325.34;;;14.83;100.00
50933;BME280;36921;49.006;9.292;2022-09-13T00:08:16;98309.44;;;14.80;100.00
50933;BME280;36921;49.006;9.292;2022-09-13T00:10:43;98307.81;;;14.79;100.00
50933;BME280;36921;49.006;9.292;2022-09-13T00:13:10;98310.75;;;14.77;100.00
50933;BME280;36921;49.006;9.292;2022-09-13T00:15:40;98316.38;;;14.71;100.00
50933;BME280;36921;49.006;9.292;2022-09-13T00:18:06;98311.88;;;14.64;100.00
50933;BME280;36921;49.006;9.292;2022-09-13T00:20:31;98315.22;;;14.55;100.00
50933;BME280;36921;49.006;9.292;2022-09-13T00:22:57;98303.94;;;14.51;100.00
50933;BME280;36921;49.006;9.292;2022-09-13T00:25:22;98301.38;;;14.44;100.00
50933;BME280;36921;49.006;9.292;2022-09-13T00:27:47;98294.09;;;14.33;100.00
50933;BME280;36921;49.006;9.292;2022-09-13T00:30:13;98290.16;;;14.29;100.00
50933;BME280;36921;49.006;9.292;2022-09-13T00:32:38;98278.34;;;14.23;100.00
50933;BME280;36921;49.006;9.292;2022-09-13T00:35:05;98295.72;;;14.22;100.00
50933;BME280;36921;49.006;9.292;2022-09-13T00:37:31;98299.19;;;14.18;100.00
50933;BME280;36921;49.006;9.292;2022-09-13T00:39:57;98293.16;;;14.16;100.00
50933;BME280;36921;49.006;9.292;2022-09-13T00:42:24;98294.56;;;14.18;100.00
50933;BME280;36921;49.006;9.292;2022-09-13T00:53:04;98289.63;;;14.03;100.00
50933;BME280;36921;49.006;9.292;2022-09-13T00:55:52;98281.00;;;13.95;100.00
50933;BME280;36921;49.006;9.292;2022-09-13T01:00:52;98273.66;;;14.07;100.00
50933;BME280;36921;49.006;9.292;2022-09-13T01:03:19;98280.53;;;14.10;100.00
50933;BME280;36921;49.006;9.292;2022-09-13T01:05:50;98290.44;;;14.04;100.00
50933;BME280;36921;49.006;9.292;2022-09-13T01:08:19;98281.97;;;13.89;100.00
50933;BME280;36921;49.006;9.292;2022-09-13T01:10:47;98270.38;;;13.81;100.00
50933;BME280;36921;49.006;9.292;2022-09-13T01:13:44;98276.28;;;13.78;100.00
50933;BME280;36921;49.006;9.292;2022-09-13T01:16:11;98271.66;;;13.67;100.00
50933;BME280;36921;49.006;9.292;2022-09-13T01:18:37;98282.88;;;13.59;100.00
50933;BME280;36921;49.006;9.292;2022-09-13T01:30:11;98287.59;;;13.28;100.00
50933;BME280;36921;49.006;9.292;2022-09-13T01:41:58;98277.78;;;13.27;100.00
50933;BME280;36921;49.006;9.292;2022-09-13T01:49:09;98264.91;;;13.34;100.00
50933;BME280;36921;49.006;9.292;2022-09-13T01:51:48;98267.22;;;13.19;100.00
50933;BME280;36921;49.006;9.292;2022-09-13T01:55:00;98261.31;;;13.10;100.00
50933;BME280;36921;49.006;9.292;2022-09-13T01:57:27;98271.66;;;13.02;100.00
50933;BME280;36921;49.006;9.292;2022-09-13T02:00:10;98253.69;;;12.89;100.00
50933;BME280;36921;49.006;9.292;2022-09-13T02:02:44;98275.50;;;12.82;100.00
50933;BME280;36921;49.006;9.292;2022-09-13T02:05:21;98275.84;;;12.74;100.00
50933;BME280;36921;49.006;9.292;2022-09-13T02:08:02;98281.59;;;12.66;100.00
50933;BME280;36921;49.006;9.292;2022-09-13T02:10:33;98279.34;;;12.63;100.00
50933;BME280;36921;49.006;9.292;2022-09-13T02:13:04;98274.59;;;12.58;100.00
50933;BME280;36921;49.006;9.292;2022-09-13T02:15:40;98267.81;;;12.49;100.00
50933;BME280;36921;49.006;9.292;2022-09-13T02:18:12;98276.88;;;12.43;100.00
50933;BME280;36921;49.006;9.292;2022-09-13T02:20:45;98273.81;;;12.39;100.00
50933;BME280;36921;49.006;9.292;2022-09-13T02:23:16;98278.63;;;12.37;100.00
50933;BME280;36921;49.006;9.292;2022-09-13T02:25:45;98282.97;;;12.38;100.00
50933;BME280;36921;49.006;9.292;2022-09-13T02:28:19;98294.63;;;12.57;100.00
50933;BME280;36921;49.006;9.292;2022-09-13T02:30:50;98299.22;;;12.57;100.00
50933;BME280;36921;49.006;9.292;2022-09-13T02:35:52;98286.34;;;12.52;100.00
50933;BME280;36921;49.006;9.292;2022-09-13T02:38:24;98279.72;;;12.48;100.00
50933;BME280;36921;49.006;9.292;2022-09-13T02:40:56;98279.94;;;12.46;100.00
50933;BME280;36921;49.006;9.292;2022-09-13T02:43:36;98273.81;;;12.69;100.00
50933;BME280;36921;49.006;9.292;2022-09-13T02:46:20;98276.72;;;12.86;100.00
50933;BME280;36921;49.006;9.292;2022-09-13T02:49:04;98272.56;;;12.84;100.00
50933;BME280;36921;49.006;9.292;2022-09-13T02:57:44;98279.94;;;12.46;100.00
50933;BME280;36921;49.006;9.292;2022-09-13T03:00:13;98271.97;;;12.33;100.00
50933;BME280;36921;49.006;9.292;2022-09-13T03:02:39;98282.78;;;12.21;100.00
50933;BME280;36921;49.006;9.292;2022-09-13T03:05:07;98277.19;;;12.16;100.00
50933;BME280;36921;49.006;9.292;2022-09-13T03:07:32;98285.56;;;12.15;100.00
50933;BME280;36921;49.006;9.292;2022-09-13T03:10:00;98284.94;;;12.13;100.00
50933;BME280;36921;49.006;9.292;2022-09-13T03:26:44;98252.75;;;12.53;100.00
50933;BME280;36921;49.006;9.292;2022-09-13T03:38:05;98265.44;;;12.04;100.00
50933;BME280;36921;49.006;9.292;2022-09-13T03:43:05;98287.94;;;11.86;100.00
50933;BME280;36921;49.006;9.292;2022-09-13T03:45:37;98309.44;;;11.81;100.00
50933;BME280;36921;49.006;9.292;2022-09-13T03:48:06;98319.50;;;11.55;100.00
50933;BME280;36921;49.006;9.292;2022-09-13T03:50:33;98305.44;;;11.40;100.00
50933;BME280;36921;49.006;9.292;2022-09-13T03:53:05;98288.75;;;11.43;100.00
50933;BME280;36921;49.006;9.292;2022-09-13T03:55:32;98266.13;;;11.56;100.00
50933;BME280;36921;49.006;9.292;2022-09-13T03:57:59;98265.31;;;11.55;100.00
50933;BME280;36921;49.006;9.292;2022-09-13T04:00:25;98263.63;;;11.54;100.00
50933;BME280;36921;49.006;9.292;2022-09-13T04:02:50;98272.03;;;11.46;100.00
50933;BME280;36921;49.006;9.292;2022-09-13T04:05:16;98266.66;;;11.39;100.00
50933;BME280;36921;49.006;9.292;2022-09-13T04:07:43;98258.78;;;11.38;100.00
50933;BME280;36921;49.006;9.292;2022-09-13T04:10:08;98251.44;;;11.45;100.00
50933;BME280;36921;49.006;9.292;2022-09-13T04:12:34;98237.06;;;11.63;100.00
50933;BME280;36921;49.006;9.292;2022-09-13T04:15:00;98233.00;;;11.54;100.00
50933;BME280;36921;49.006;9.292;2022-09-13T04:17:26;98238.94;;;11.44;100.00
50933;BME280;36921;49.006;9.292;2022-09-13T04:19:51;98251.03;;;11.41;100.00
50933;BME280;36921;49.006;9.292;2022-09-13T04:22:17;98257.69;;;11.46;100.00
50933;BME280;36921;49.006;9.292;2022-09-13T04:24:43;98258.50;;;11.46;100.00
50933;BME280;36921;49.006;9.292;2022-09-13T04:27:08;98253.75;;;11.41;100.00
50933;BME280;36921;49.006;9.292;2022-09-13T04:29:34;98244.72;;;11.29;100.00
50933;BME280;36921;49.006;9.292;2022-09-13T04:31:59;98254.34;;;11.18;100.00
50933;BME280;36921;49.006;9.292;2022-09-13T04:34:25;98261.81;;;11.23;100.00
50933;BME280;36921;49.006;9.292;2022-09-13T04:36:51;98264.16;;;11.19;100.00
50933;BME280;36921;49.006;9.292;2022-09-13T04:39:21;98278.88;;;11.24;100.00
50933;BME280;36921;49.006;9.292;2022-09-13T04:41:48;98281.88;;;11.40;100.00
50933;BME280;36921;49.006;9.292;2022-09-13T04:44:15;98285.78;;;11.45;100.00
50933;BME280;36921;49.006;9.292;2022-09-13T04:46:41;98294.34;;;11.48;100.00
50933;BME280;36921;49.006;9.292;2022-09-13T04:49:09;98299.22;;;11.58;100.00
50933;BME280;36921;49.006;9.292;2022-09-13T04:51:34;98296.69;;;11.63;100.00
50933;BME280;36921;49.006;9.292;2022-09-13T04:54:00;98291.59;;;11.73;100.00
50933;BME280;36921;49.006;9.292;2022-09-13T04:56:26;98286.31;;;12.03;100.00
50933;BME280;36921;49.006;9.292;2022-09-13T04:58:53;98296.91;;;12.23;100.00
50933;BME280;36921;49.006;9.292;2022-09-13T05:01:19;98299.34;;;12.32;100.00
50933;BME280;36921;49.006;9.292;2022-09-13T05:03:44;98302.63;;;12.34;100.00
50933;BME280;36921;49.006;9.292;2022-09-13T05:06:14;98301.00;;;12.33;100.00
50933;BME280;36921;49.006;9.292;2022-09-13T05:08:43;98308.91;;;12.34;100.00
50933;BME280;36921;49.006;9.292;2022-09-13T05:11:08;98303.56;;;12.27;100.00
50933;BME280;36921;49.006;9.292;2022-09-13T05:13:34;98308.16;;;12.27;100.00
50933;BME280;36921;49.006;9.292;2022-09-13T05:16:03;98310.19;;;12.32;100.00
50933;BME280;36921;49.006;9.292;2022-09-13T05:18:30;98292.47;;;12.47;100.00
50933;BME280;36921;49.006;9.292;2022-09-13T05:20:57;98297.91;;;12.47;100.00
50933;BME280;36921;49.006;9.292;2022-09-13T05:23:23;98306.56;;;12.56;100.00
50933;BME280;36921;49.006;9.292;2022-09-13T05:25:59;98300.13;;;12.69;100.00
50933;BME280;36921;49.006;9.292;2022-09-13T05:28:27;98295.25;;;12.89;100.00
50933;BME280;36921;49.006;9.292;2022-09-13T05:31:01;98310.19;;;14.11;100.00
50933;BME280;36921;49.006;9.292;2022-09-13T05:33:32;98309.84;;;14.72;100.00
50933;BME280;36921;49.006;9.292;2022-09-13T05:35:57;98317.72;;;14.85;100.00
50933;BME280;36921;49.006;9.292;2022-09-13T05:38:23;98314.59;;;14.93;100.00
50933;BME280;36921;49.006;9.292;2022-09-13T05:40:59;98309.53;;;14.56;100.00
50933;BME280;36921;49.006;9.292;2022-09-13T05:43:27;98312.53;;;14.19;100.00
50933;BME280;36921;49.006;9.292;2022-09-13T05:46:16;98320.16;;;13.94;100.00
50933;BME280;36921;49.006;9.292;2022-09-13T05:48:43;98315.41;;;13.77;100.00
50933;BME280;36921;49.006;9.292;2022-09-13T05:51:19;98320.97;;;13.82;100.00
50933;BME280;36921;49.006;9.292;2022-09-13T05:53:47;98327.34;;;13.76;100.00
50933;BME280;36921;49.006;9.292;2022-09-13T05:56:16;98326.41;;;13.82;100.00
50933;BME280;36921;49.006;9.292;2022-09-13T05:58:43;98323.22;;;13.97;100.00
50933;BME280;36921;49.006;9.292;2022-09-13T06:01:10;98319.75;;;14.25;100.00
50933;BME280;36921;49.006;9.292;2022-09-13T06:03:36;98314.72;;;14.46;100.00
50933;BME280;36921;49.006;9.292;2022-09-13T06:06:02;98312.38;;;14.50;100.00
50933;BME280;36921;49.006;9.292;2022-09-13T06:08:30;98315.34;;;14.60;100.00
50933;BME280;36921;49.006;9.292;2022-09-13T06:10:57;98320.94;;;14.82;100.00
50933;BME280;36921;49.006;9.292;2022-09-13T06:13:24;98325.03;;;14.96;100.00
50933;BME280;36921;49.006;9.292;2022-09-13T06:15:51;98323.25;;;15.19;100.00
50933;BME280;36921;49.006;9.292;2022-09-13T06:18:17;98336.16;;;15.40;99.94
50933;BME280;36921;49.006;9.292;2022-09-13T06:20:43;98334.03;;;15.42;100.00
50933;BME280;36921;49.006;9.292;2022-09-13T06:23:08;98335.03;;;15.53;100.00
50933;BME280;36921;49.006;9.292;2022-09-13T06:25:34;98338.25;;;15.50;98.14
50933;BME280;36921;49.006;9.292;2022-09-13T06:27:59;98351.06;;;15.49;100.00
50933;BME280;36921;49.006;9.292;2022-09-13T06:30:24;98341.97;;;15.44;99.55
50933;BME280;36921;49.006;9.292;2022-09-13T06:32:50;98342.13;;;15.37;100.00
50933;BME280;36921;49.006;9.292;2022-09-13T06:35:15;98323.16;;;15.76;96.81
50933;BME280;36921;49.006;9.292;2022-09-13T06:37:41;98326.47;;;15.78;95.46
50933;BME280;36921;49.006;9.292;2022-09-13T06:40:08;98328.19;;;16.01;92.94
50933;BME280;36921;49.006;9.292;2022-09-13T06:42:34;98305.00;;;16.42;88.97
50933;BME280;36921;49.006;9.292;2022-09-13T06:45:00;98306.94;;;17.13;82.68
50933;BME280;36921;49.006;9.292;2022-09-13T06:47:25;98314.31;;;18.09;76.39
50933;BME280;36921;49.006;9.292;2022-09-13T06:49:51;98311.97;;;18.91;71.40
50933;BME280;36921;49.006;9.292;2022-09-13T06:52:16;98313.19;;;19.92;66.68
50933;BME280;36921;49.006;9.292;2022-09-13T06:54:42;98309.44;;;20.74;63.58
50933;BME280;36921;49.006;9.292;2022-09-13T06:57:08;98321.50;;;21.38;62.00
50933;BME280;36921;49.006;9.292;2022-09-13T06:59:33;98296.50;;;21.63;58.75
50933;BME280;36921;49.006;9.292;2022-09-13T07:01:59;98311.16;;;21.59;59.15
50933;BME280;36921;49.006;9.292;2022-09-13T07:04:25;98310.38;;;21.48;58.50
50933;BME280;36921;49.006;9.292;2022-09-13T07:06:50;98300.97;;;20.65;60.67
50933;BME280;36921;49.006;9.292;2022-09-13T07:09:20;98285.88;;;20.57;61.96
50933;BME280;36921;49.006;9.292;2022-09-13T07:11:50;98285.13;;;20.96;60.91
50933;BME280;36921;49.006;9.292;2022-09-13T07:14:25;98282.47;;;22.47;56.26
50933;BME280;36921;49.006;9.292;2022-09-13T07:16:51;98291.06;;;24.58;50.94
50933;BME280;36921;49.006;9.292;2022-09-13T07:19:20;98288.69;;;24.79;50.45
50933;BME280;36921;49.006;9.292;2022-09-13T07:21:47;98284.78;;;24.80;49.58
50933;BME280;36921;49.006;9.292;2022-09-13T07:24:16;98280.22;;;25.93;47.17
50933;BME280;36921;49.006;9.292;2022-09-13T07:26:42;98289.91;;;25.82;48.01
50933;BME280;36921;49.006;9.292;2022-09-13T07:29:10;98286.28;;;27.49;44.43
50933;BME280;36921;49.006;9.292;2022-09-13T07:31:38;98294.25;;;28.41;42.88
50933;BME280;36921;49.006;9.292;2022-09-13T07:34:06;98293.47;;;29.09;42.13
50933;BME280;36921;49.006;9.292;2022-09-13T07:36:34;98288.50;;;30.11;40.01
50933;BME280;36921;49.006;9.292;2022-09-13T07:38:59;98294.69;;;29.62;41.11
50933;BME280;36921;49.006;9.292;2022-09-13T07:41:27;98291.78;;;28.02;43.49
50933;BME280;36921;49.006;9.292;2022-09-13T07:43:53;98281.44;;;26.09;48.01
50933;BME280;36921;49.006;9.292;2022-09-13T07:46:21;98282.69;;;24.99;49.57
50933;BME280;36921;49.006;9.292;2022-09-13T07:48:47;98283.16;;;24.37;51.26
50933;BME280;36921;49.006;9.292;2022-09-13T07:51:16;98280.50;;;24.74;51.21
50933;BME280;36921;49.006;9.292;2022-09-13T07:53:43;98278.88;;;23.84;53.10
50933;BME280;36921;49.006;9.292;2022-09-13T07:56:12;98275.94;;;23.43;54.34
50933;BME280;36921;49.006;9.292;2022-09-13T07:58:39;98273.94;;;23.30;55.23
50933;BME280;36921;49.006;9.292;2022-09-13T08:01:23;98285.72;;;23.35;55.52
50933;BME280;36921;49.006;9.292;2022-09-13T08:03:51;98295.41;;;24.31;52.82
50933;BME280;36921;49.006;9.292;2022-09-13T08:06:17;98298.03;;;24.55;52.26
50933;BME280;36921;49.006;9.292;2022-09-13T08:08:43;98286.06;;;25.24;50.30
50933;BME280;36921;49.006;9.292;2022-09-13T08:11:15;98281.31;;;25.61;48.32
50933;BME280;36921;49.006;9.292;2022-09-13T08:13:41;98275.97;;;25.87;47.34
50933;BME280;36921;49.006;9.292;2022-09-13T08:16:06;98272.72;;;25.26;48.70
50933;BME280;36921;49.006;9.292;2022-09-13T08:18:32;98288.94;;;25.19;48.76
50933;BME280;36921;49.006;9.292;2022-09-13T08:20:59;98287.94;;;25.01;49.39
50933;BME280;36921;49.006;9.292;2022-09-13T08:23:25;98285.06;;;25.65;47.54
50933;BME280;36921;49.006;9.292;2022-09-13T08:25:51;98282.66;;;24.49;50.17
50933;BME280;36921;49.006;9.292;2022-09-13T08:28:18;98264.09;;;25.95;47.83
50933;BME280;36921;49.006;9.292;2022-09-13T08:30:46;98274.09;;;26.76;45.04
50933;BME280;36921;49.006;9.292;2022-09-13T08:33:12;98279.88;;;27.84;42.70
50933;BME280;36921;49.006;9.292;2022-09-13T08:35:37;98269.06;;;27.73;42.80
50933;BME280;36921;49.006;9.292;2022-09-13T08:38:04;98268.28;;;27.64;43.05
50933;BME280;36921;49.006;9.292;2022-09-13T08:40:37;98264.53;;;27.43;44.01
50933;BME280;36921;49.006;9.292;2022-09-13T08:48:44;98286.09;;;27.63;42.98
50933;BME280;36921;49.006;9.292;2022-09-13T08:51:24;98285.00;;;26.72;44.56
50933;BME280;36921;49.006;9.292;2022-09-13T08:53:52;98280.97;;;26.96;44.91
50933;BME280;36921;49.006;9.292;2022-09-13T09:04:43;98273.75;;;26.77;46.01
50933;BME280;36921;49.006;9.292;2022-09-13T09:07:20;98278.66;;;26.40;45.80
50933;BME280;36921;49.006;9.292;2022-09-13T09:09:51;98273.91;;;26.32;45.59
50933;BME280;36921;49.006;9.292;2022-09-13T09:12:40;98270.09;;;25.43;47.27
50933;BME280;36921;49.006;9.292;2022-09-13T09:17:58;98283.00;;;24.28;50.48
50933;BME280;36921;49.006;9.292;2022-09-13T09:22:59;98262.72;;;24.88;48.08
50933;BME280;36921;49.006;9.292;2022-09-13T09:25:26;98262.47;;;25.26;47.75
50933;BME280;36921;49.006;9.292;2022-09-13T09:27:52;98267.94;;;26.08;45.96
50933;BME280;36921;49.006;9.292;2022-09-13T09:30:19;98268.56;;;26.44;45.41
50933;BME280;36921;49.006;9.292;2022-09-13T09:33:14;98261.22;;;26.97;43.90
50933;BME280;36921;49.006;9.292;2022-09-13T09:38:38;98258.63;;;27.09;43.41
50933;BME280;36921;49.006;9.292;2022-09-13T09:41:29;98264.34;;;27.83;41.36
50933;BME280;36921;49.006;9.292;2022-09-13T09:44:22;98258.56;;;30.69;36.94
50933;BME280;36921;49.006;9.292;2022-09-13T09:47:11;98250.59;;;33.55;32.27
50933;BME280;36921;49.006;9.292;2022-09-13T09:50:44;98254.72;;;34.46;31.23
50933;BME280;36921;49.006;9.292;2022-09-13T09:55:41;98234.09;;;38.50;26.23
50933;BME280;36921;49.006;9.292;2022-09-13T09:58:06;98232.03;;;38.18;26.33
50933;BME280;36921;49.006;9.292;2022-09-13T10:00:48;98226.38;;;38.00;26.27
50933;BME280;36921;49.006;9.292;2022-09-13T10:03:26;98237.78;;;37.27;27.28
50933;BME280;36921;49.006;9.292;2022-09-13T10:06:13;98245.31;;;37.05;27.42
50933;BME280;36921;49.006;9.292;2022-09-13T10:08:47;98251.31;;;37.91;26.23
50933;BME280;36921;49.006;9.292;2022-09-13T10:11:19;98240.94;;;38.24;25.42
50933;BME280;36921;49.006;9.292;2022-09-13T10:14:00;98255.03;;;38.13;25.63
50933;BME280;36921;49.006;9.292;2022-09-13T10:16:30;98256.88;;;37.55;26.07
50933;BME280;36921;49.006;9.292;2022-09-13T10:19:28;98256.59;;;35.75;27.93
50933;BME280;36921;49.006;9.292;2022-09-13T10:22:03;98250.16;;;35.74;28.15
50933;BME280;36921;49.006;9.292;2022-09-13T10:24:30;98241.47;;;34.46;29.91
50933;BME280;36921;49.006;9.292;2022-09-13T10:26:57;98239.94;;;33.83;29.83
50933;BME280;36921;49.006;9.292;2022-09-13T10:29:25;98248.31;;;34.03;30.41
50933;BME280;36921;49.006;9.292;2022-09-13T10:31:53;98239.75;;;34.61;28.93
50933;BME280;36921;49.006;9.292;2022-09-13T10:34:30;98235.00;;;36.68;26.43
50933;BME280;36921;49.006;9.292;2022-09-13T10:37:05;98232.34;;;34.53;28.77
50933;BME280;36921;49.006;9.292;2022-09-13T10:39:36;98250.59;;;32.84;30.15
50933;BME280;36921;49.006;9.292;2022-09-13T10:42:20;98243.31;;;32.00;31.46
50933;BME280;36921;49.006;9.292;2022-09-13T10:45:00;98232.56;;;31.18;32.67
50933;BME280;36921;49.006;9.292;2022-09-13T10:47:42;98240.69;;;32.39;32.08
50933;BME280;36921;49.006;9.292;2022-09-13T10:50:24;98232.50;;;33.33;29.60
50933;BME280;36921;49.006;9.292;2022-09-13T10:52:55;98241.06;;;32.53;30.32
50933;BME280;36921;49.006;9.292;2022-09-13T10:57:51;98234.38;;;32.11;31.88
50933;BME280;36921;49.006;9.292;2022-09-13T11:00:23;98226.09;;;32.97;30.84
50933;BME280;36921;49.006;9.292;2022-09-13T11:09:15;98229.97;;;32.57;30.73
50933;BME280;36921;49.006;9.292;2022-09-13T11:12:05;98224.25;;;34.48;28.61
50933;BME280;36921;49.006;9.292;2022-09-13T11:20:15;98234.94;;;31.44;31.67
50933;BME280;36921;49.006;9.292;2022-09-13T11:36:38;98244.41;;;29.38;35.89
50933;BME280;36921;49.006;9.292;2022-09-13T11:39:30;98254.84;;;29.62;35.66
50933;BME280;36921;49.006;9.292;2022-09-13T11:45:27;98245.06;;;29.56;34.24
50933;BME280;36921;49.006;9.292;2022-09-13T11:51:00;98233.41;;;31.91;31.44
50933;BME280;36921;49.006;9.292;2022-09-13T11:56:35;98214.72;;;32.55;31.00
50933;BME280;36921;49.006;9.292;2022-09-13T11:59:14;98228.56;;;32.67;30.58
50933;BME280;36921;49.006;9.292;2022-09-13T12:01:45;98231.28;;;32.79;29.85
50933;BME280;36921;49.006;9.292;2022-09-13T12:04:50;98220.66;;;32.37;31.03
50933;BME280;36921;49.006;9.292;2022-09-13T12:07:18;98209.41;;;31.46;32.12
50933;BME280;36921;49.006;9.292;2022-09-13T12:13:01;98203.50;;;32.39;30.45
50933;BME280;36921;49.006;9.292;2022-09-13T12:15:36;98203.84;;;32.37;30.70
50933;BME280;36921;49.006;9.292;2022-09-13T12:20:40;98193.06;;;31.60;31.30
50933;BME280;36921;49.006;9.292;2022-09-13T12:23:14;98198.31;;;31.49;31.59
50933;BME280;36921;49.006;9.292;2022-09-13T12:26:07;98196.16;;;31.30;32.41
50933;BME280;36921;49.006;9.292;2022-09-13T12:28:38;98194.31;;;31.62;31.35
50933;BME280;36921;49.006;9.292;2022-09-13T12:31:17;98189.56;;;31.22;31.93
50933;BME280;36921;49.006;9.292;2022-09-13T12:33:44;98177.41;;;31.43;31.51
50933;BME280;36921;49.006;9.292;2022-09-13T12:36:16;98175.84;;;31.90;31.06
50933;BME280;36921;49.006;9.292;2022-09-13T12:49:37;98161.06;;;32.21;30.24
50933;BME280;36921;49.006;9.292;2022-09-13T13:03:45;98136.50;;;35.52;27.48
50933;BME280;36921;49.006;9.292;2022-09-13T13:09:18;98136.88;;;36.36;25.56
50933;BME280;36921;49.006;9.292;2022-09-13T13:11:47;98136.16;;;35.95;25.65
50933;BME280;36921;49.006;9.292;2022-09-13T13:17:43;98126.00;;;34.02;26.82
50933;BME280;36921;49.006;9.292;2022-09-13T13:36:42;98103.72;;;31.83;29.89
50933;BME280;36921;49.006;9.292;2022-09-13T13:42:00;98100.31;;;30.73;30.97
50933;BME280;36921;49.006;9.292;2022-09-13T13:49:42;98077.34;;;35.86;25.13
50933;BME280;36921;49.006;9.292;2022-09-13T13:57:36;98079.63;;;36.88;25.09
50933;BME280;36921;49.006;9.292;2022-09-13T14:00:15;98073.78;;;38.40;23.10
50933;BME280;36921;49.006;9.292;2022-09-13T14:10:32;98061.91;;;36.17;24.80
50933;BME280;36921;49.006;9.292;2022-09-13T14:13:16;98051.94;;;36.27;24.78
50933;BME280;36921;49.006;9.292;2022-09-13T14:21:08;98051.44;;;33.78;28.05
50933;BME280;36921;49.006;9.292;2022-09-13T14:23:42;98054.09;;;33.48;28.26
50933;BME280;36921;49.006;9.292;2022-09-13T14:26:08;98054.47;;;33.23;28.73
50933;BME280;36921;49.006;9.292;2022-09-13T14:28:35;98050.88;;;32.84;29.54
50933;BME280;36921;49.006;9.292;2022-09-13T14:31:00;98054.72;;;32.21;30.05
50933;BME280;36921;49.006;9.292;2022-09-13T14:33:34;98050.13;;;32.13;30.32
50933;BME280;36921;49.006;9.292;2022-09-13T14:36:04;98051.03;;;31.85;30.08
50933;BME280;36921;49.006;9.292;2022-09-13T14:38:31;98046.38;;;31.57;30.50
50933;BME280;36921;49.006;9.292;2022-09-13T14:41:12;98039.88;;;31.53;30.06
50933;BME280;36921;49.006;9.292;2022-09-13T14:43:38;98042.84;;;31.76;29.80
50933;BME280;36921;49.006;9.292;2022-09-13T14:46:27;98036.03;;;32.44;29.83
50933;BME280;36921;49.006;9.292;2022-09-13T14:49:06;98033.06;;;32.72;28.40
50933;BME280;36921;49.006;9.292;2022-09-13T14:51:45;98033.41;;;33.10;27.96
50933;BME280;36921;49.006;9.292;2022-09-13T14:56:44;98037.50;;;32.03;28.78
50933;BME280;36921;49.006;9.292;2022-09-13T15:00:00;98034.47;;;32.47;28.64
50933;BME280;36921;49.006;9.292;2022-09-13T15:02:25;98033.06;;;32.72;28.08
50933;BME280;36921;49.006;9.292;2022-09-13T15:04:59;98028.56;;;32.33;28.88
50933;BME280;36921;49.006;9.292;2022-09-13T15:07:31;98023.34;;;31.80;30.04
50933;BME280;36921;49.006;9.292;2022-09-13T15:23:37;97994.56;;;31.79;29.72
50933;BME280;36921;49.006;9.292;2022-09-13T15:26:23;97999.44;;;31.66;30.06
50933;BME280;36921;49.006;9.292;2022-09-13T15:28:55;97987.53;;;31.06;30.89
50933;BME280;36921;49.006;9.292;2022-09-13T15:31:29;97982.19;;;30.85;31.52
50933;BME280;36921;49.006;9.292;2022-09-13T15:36:44;97979.66;;;29.50;33.40
50933;BME280;36921;49.006;9.292;2022-09-13T15:39:20;97971.53;;;29.20;33.89
50933;BME280;36921;49.006;9.292;2022-09-13T15:41:56;97970.44;;;29.00;33.73
50933;BME280;36921;49.006;9.292;2022-09-13T15:44:23;97964.00;;;28.75;34.28
50933;BME280;36921;49.006;9.292;2022-09-13T15:46:53;97953.88;;;28.58;34.55
50933;BME280;36921;49.006;9.292;2022-09-13T15:49:24;97953.25;;;28.53;34.45
50933;BME280;36921;49.006;9.292;2022-09-13T15:51:59;97960.69;;;28.40;35.00
50933;BME280;36921;49.006;9.292;2022-09-13T15:54:30;97956.19;;;28.35;35.07
50933;BME280;36921;49.006;9.292;2022-09-13T15:56:57;97943.16;;;28.48;34.32
50933;BME280;36921;49.006;9.292;2022-09-13T15:59:23;97952.53;;;28.23;34.37
50933;BME280;36921;49.006;9.292;2022-09-13T16:01:50;97944.28;;;28.14;34.25
50933;BME280;36921;49.006;9.292;2022-09-13T16:04:15;97943.03;;;28.03;34.74
50933;BME280;36921;49.006;9.292;2022-09-13T16:06:41;97944.84;;;27.78;35.18
50933;BME280;36921;49.006;9.292;2022-09-13T16:09:22;97943.69;;;27.79;35.43
50933;BME280;36921;49.006;9.292;2022-09-13T16:11:49;97932.84;;;27.56;36.30
50933;BME280;36921;49.006;9.292;2022-09-13T16:14:15;97930.34;;;27.42;36.50
50933;BME280;36921;49.006;9.292;2022-09-13T16:16:41;97932.63;;;27.40;36.37
50933;BME280;36921;49.006;9.292;2022-09-13T16:19:18;97919.34;;;27.25;36.80
50933;BME280;36921;49.006;9.292;2022-09-13T16:21:45;97919.03;;;27.18;37.15
50933;BME280;36921;49.006;9.292;2022-09-13T16:24:10;97913.69;;;27.04;38.04
50933;BME280;36921;49.006;9.292;2022-09-13T16:26:36;97917.78;;;26.98;37.58
50933;BME280;36921;49.006;9.292;2022-09-13T16:29:02;97917.81;;;26.89;37.76
50933;BME280;36921;49.006;9.292;2022-09-13T16:31:28;97913.94;;;26.81;37.89
50933;BME280;36921;49.006;9.292;2022-09-13T16:33:53;97906.94;;;26.66;38.91
50933;BME280;36921;49.006;9.292;2022-09-13T16:36:19;97920.88;;;26.58;39.54
50933;BME280;36921;49.006;9.292;2022-09-13T16:38:45;97916.13;;;26.50;40.03
50933;BME280;36921;49.006;9.292;2022-09-13T16:41:12;97907.66;;;26.37;40.84
50933;BME280;36921;49.006;9.292;2022-09-13T16:43:37;97911.56;;;26.28;41.16
50933;BME280;36921;49.006;9.292;2022-09-13T16:46:07;97905.56;;;26.17;41.68
50933;BME280;36921;49.006;9.292;2022-09-13T16:48:34;97920.25;;;26.09;42.27
50933;BME280;36921;49.006;9.292;2022-09-13T16:51:04;97909.34;;;25.95;42.81
50933;BME280;36921;49.006;9.292;2022-09-13T16:53:36;97912.72;;;25.83;42.46
50933;BME280;36921;49.006;9.292;2022-09-13T16:56:12;97913.06;;;25.73;42.35
50933;BME280;36921;49.006;9.292;2022-09-13T16:58:39;97908.13;;;25.61;43.51
50933;BME280;36921;49.006;9.292;2022-09-13T17:01:06;97902.91;;;25.51;44.19